Schedule Details


Flight Number: CTN336
Departure: Kastela (LDSP) at 17:15
Arrival: Nikola Tesla (LYBE) at 18:20
Route: REMPI L5 ENUPU

Weather Information
LDSP 162230Z AUTO 01004KT 340V050 CAVOK 13/05 Q1017
LYBE 162230Z 22004KT 8000 NSC 07/06 Q1021 NOSIG
Schedule Frequency

Route Map